Frederick, OK

2:01 PM CDT on May 06, 2015 (GMT -0500)
Altus Air Force Base | | Change Station
CLOSE
Current Station
Airport
Location: Altus AFB,
Elevation: 1378 ft
Nearby Weather Stations
Active Advisory: Tornado Watch

Elev 1378 ft 34.67 °N, 99.27 °W | Updated 8 minutes ago

Mostly Cloudy
Mostly Cloudy
81 °F
Feels Like 84 °F
N
21
Wind Variable Wind from South
Gusts 28 mph

Today
High -- | Low -- °F
--% Chance of Precip.
Yesterday
High -- | Low -- °F
Precip. -- in
6:41 AM 8:24 PM
Waning Gibbous, 93% visible
Pressure 29.80 in
Visibility 10.0 miles
Clouds Scattered Clouds 3600 ft
Mostly Cloudy 4600 ft
Heat Index 84 °F
Dew Point 70 °F
Humidity 70%
Rainfall 0.00 in
Snow Depth Not available.
UV 6 out of 12
Pollen 5.90 out of 12
Air Quality Not available.
Flu Activity Local Activity
SPECI KLTS 061853Z 18018G24KT 10SM SCT036 BKN046 27/21 A2980 RMK AO2A

More Conditions Fewer Conditions

Pressure 29.80 in
Visibility 10.0 miles
Clouds Scattered Clouds 3600 ft
Mostly Cloudy 4600 ft
Heat Index 84 °F
Dew Point 70 °F
Humidity 70%
Rainfall 0.00 in
Snow Depth Not available.
UV 6 out of 12
Pollen 5.90 out of 12
Air Quality Not available.
Flu Activity Local Activity
SPECI KLTS 061853Z 18018G24KT 10SM SCT036 BKN046 27/21 A2980 RMK AO2A

More Conditions Fewer Conditions

The Storm Prediction Center has issued an enhanced risk of severe weather for parts of central Texas, Oklahoma, Kansas, and southern Nebraska. Severe thunderstorms could form strong tornadoes, large hail, heavy rain, and strong wind into the evening. An area of slight risk of severe weather encompasses this enhanced area.

10-Day Weather Forecast

Almanac

Astronomy

May. 06, 2015 Rise Set
Actual Time
Civil Twilight
Nautical Twilight
Astronomical Twilight
Moon
Length of Visible Light
Length of Day
Tomorrow will be .
, % of the Moon is Illuminated

Today's Extremes

State Highs State Lows

Community

WunderPhotos

Upload Photos

1,818,993 photos uploaded!

WunderBlogs® & News

Nearby

Air Quality

  Air Quality AQ Index Pollutant
Not available.

Snow Depth

Station Depth Elevation

Earthquake Activity

City Distance Mag. Time & Date
Minimum magnitude displayed is 2.5.

Coastal Water Temperatures

Place Temperature

Stations

Nearby Weather Stations

Station Location Temp. Windchill Dew Point Humidity Wind Precip. Elev Updated Type
                   
Tornado Watch
Statement as of 1:43 PM CDT on May 06, 2015

Tornado Watch 133 remains in effect until 900 PM CDT for the
following locations


OK
. Oklahoma counties included are

Alfalfa Beckham Blaine
Caddo Canadian Comanche
Cotton Custer Dewey
Ellis Garfield Grady
Grant Greer Harmon
Harper Jackson Jefferson
Kingfisher Kiowa major
Roger Mills Stephens Tillman
Washita Woods Woodward